sensor_id;sensor_type;location;lat;lon;timestamp;P1;durP1;ratioP1;P2;durP2;ratioP2
76357;SDS011;65185;21.060;105.826;2023-06-26T00:00:30;72.63;;;41.53;;
76357;SDS011;65185;21.060;105.826;2023-06-26T00:02:58;64.15;;;35.05;;
76357;SDS011;65185;21.060;105.826;2023-06-26T00:05:24;69.38;;;36.28;;
76357;SDS011;65185;21.060;105.826;2023-06-26T00:07:53;64.57;;;31.77;;
76357;SDS011;65185;21.060;105.826;2023-06-26T00:10:20;62.50;;;32.38;;
76357;SDS011;65185;21.060;105.826;2023-06-26T00:12:46;52.90;;;29.75;;
76357;SDS011;65185;21.060;105.826;2023-06-26T00:15:13;62.42;;;31.58;;
76357;SDS011;65185;21.060;105.826;2023-06-26T00:17:40;56.58;;;30.13;;
76357;SDS011;65185;21.060;105.826;2023-06-26T00:20:07;51.35;;;28.52;;
76357;SDS011;65185;21.060;105.826;2023-06-26T00:22:34;48.03;;;27.80;;
76357;SDS011;65185;21.060;105.826;2023-06-26T00:25:01;48.45;;;26.75;;
76357;SDS011;65185;21.060;105.826;2023-06-26T00:27:28;49.50;;;27.25;;
76357;SDS011;65185;21.060;105.826;2023-06-26T00:29:55;51.10;;;27.40;;
76357;SDS011;65185;21.060;105.826;2023-06-26T00:32:21;49.67;;;27.25;;
76357;SDS011;65185;21.060;105.826;2023-06-26T00:34:48;59.05;;;31.65;;
76357;SDS011;65185;21.060;105.826;2023-06-26T00:37:15;46.65;;;25.77;;
76357;SDS011;65185;21.060;105.826;2023-06-26T00:39:42;48.90;;;26.38;;
76357;SDS011;65185;21.060;105.826;2023-06-26T00:42:08;44.03;;;25.15;;
76357;SDS011;65185;21.060;105.826;2023-06-26T00:44:35;46.80;;;25.30;;
76357;SDS011;65185;21.060;105.826;2023-06-26T00:47:02;42.28;;;25.27;;
76357;SDS011;65185;21.060;105.826;2023-06-26T00:49:29;47.90;;;25.70;;
76357;SDS011;65185;21.060;105.826;2023-06-26T00:51:56;42.55;;;24.83;;
76357;SDS011;65185;21.060;105.826;2023-06-26T00:54:23;49.13;;;28.17;;
76357;SDS011;65185;21.060;105.826;2023-06-26T00:56:50;60.55;;;34.00;;
76357;SDS011;65185;21.060;105.826;2023-06-26T00:59:17;60.78;;;35.22;;
76357;SDS011;65185;21.060;105.826;2023-06-26T01:01:43;59.05;;;36.63;;
76357;SDS011;65185;21.060;105.826;2023-06-26T01:04:10;72.13;;;39.78;;
76357;SDS011;65185;21.060;105.826;2023-06-26T01:06:46;64.82;;;38.33;;
76357;SDS011;65185;21.060;105.826;2023-06-26T01:09:17;75.82;;;41.53;;
76357;SDS011;65185;21.060;105.826;2023-06-26T01:11:45;72.72;;;42.95;;
76357;SDS011;65185;21.060;105.826;2023-06-26T01:14:12;85.30;;;45.53;;
76357;SDS011;65185;21.060;105.826;2023-06-26T01:16:40;80.65;;;44.17;;
76357;SDS011;65185;21.060;105.826;2023-06-26T01:19:19;77.63;;;43.95;;
76357;SDS011;65185;21.060;105.826;2023-06-26T01:21:55;81.72;;;45.92;;
76357;SDS011;65185;21.060;105.826;2023-06-26T01:24:28;79.35;;;43.65;;
76357;SDS011;65185;21.060;105.826;2023-06-26T01:27:02;79.80;;;44.92;;
76357;SDS011;65185;21.060;105.826;2023-06-26T01:29:33;84.05;;;46.75;;
76357;SDS011;65185;21.060;105.826;2023-06-26T01:32:02;83.85;;;45.22;;
76357;SDS011;65185;21.060;105.826;2023-06-26T01:34:29;77.13;;;45.22;;
76357;SDS011;65185;21.060;105.826;2023-06-26T01:36:56;87.50;;;47.63;;
76357;SDS011;65185;21.060;105.826;2023-06-26T01:39:23;102.70;;;53.72;;
76357;SDS011;65185;21.060;105.826;2023-06-26T01:41:50;102.75;;;57.83;;
76357;SDS011;65185;21.060;105.826;2023-06-26T01:44:19;105.03;;;58.88;;
76357;SDS011;65185;21.060;105.826;2023-06-26T01:47:00;98.55;;;58.45;;
76357;SDS011;65185;21.060;105.826;2023-06-26T01:57:26;69.95;;;42.85;;
76357;SDS011;65185;21.060;105.826;2023-06-26T01:59:55;58.20;;;37.88;;
76357;SDS011;65185;21.060;105.826;2023-06-26T02:02:24;48.40;;;34.92;;
76357;SDS011;65185;21.060;105.826;2023-06-26T02:04:51;45.95;;;31.20;;
76357;SDS011;65185;21.060;105.826;2023-06-26T02:07:18;39.28;;;27.48;;
76357;SDS011;65185;21.060;105.826;2023-06-26T02:09:45;37.35;;;27.45;;
76357;SDS011;65185;21.060;105.826;2023-06-26T02:12:16;32.92;;;25.63;;
76357;SDS011;65185;21.060;105.826;2023-06-26T02:14:43;30.90;;;23.75;;
76357;SDS011;65185;21.060;105.826;2023-06-26T02:17:13;33.10;;;23.40;;
76357;SDS011;65185;21.060;105.826;2023-06-26T02:19:43;28.48;;;21.75;;
76357;SDS011;65185;21.060;105.826;2023-06-26T02:22:16;28.45;;;22.13;;
76357;SDS011;65185;21.060;105.826;2023-06-26T02:24:43;30.98;;;24.17;;
76357;SDS011;65185;21.060;105.826;2023-06-26T02:27:10;36.53;;;24.58;;
76357;SDS011;65185;21.060;105.826;2023-06-26T02:29:36;31.80;;;23.23;;
76357;SDS011;65185;21.060;105.826;2023-06-26T02:32:06;28.98;;;22.17;;
76357;SDS011;65185;21.060;105.826;2023-06-26T02:34:33;32.22;;;23.77;;
76357;SDS011;65185;21.060;105.826;2023-06-26T02:37:01;35.75;;;26.38;;
76357;SDS011;65185;21.060;105.826;2023-06-26T02:39:27;31.98;;;24.42;;
76357;SDS011;65185;21.060;105.826;2023-06-26T02:41:54;31.17;;;24.30;;
76357;SDS011;65185;21.060;105.826;2023-06-26T02:44:21;35.28;;;24.92;;
76357;SDS011;65185;21.060;105.826;2023-06-26T02:46:48;29.98;;;23.45;;
76357;SDS011;65185;21.060;105.826;2023-06-26T02:49:14;29.25;;;22.58;;
76357;SDS011;65185;21.060;105.826;2023-06-26T02:51:41;27.17;;;21.20;;
76357;SDS011;65185;21.060;105.826;2023-06-26T02:54:08;29.98;;;20.95;;
76357;SDS011;65185;21.060;105.826;2023-06-26T02:56:35;27.60;;;21.35;;
76357;SDS011;65185;21.060;105.826;2023-06-26T02:59:02;27.67;;;21.40;;
76357;SDS011;65185;21.060;105.826;2023-06-26T03:01:28;25.30;;;20.65;;
76357;SDS011;65185;21.060;105.826;2023-06-26T03:03:55;26.10;;;20.40;;
76357;SDS011;65185;21.060;105.826;2023-06-26T03:06:22;26.25;;;20.15;;
76357;SDS011;65185;21.060;105.826;2023-06-26T03:08:49;23.77;;;19.63;;
76357;SDS011;65185;21.060;105.826;2023-06-26T03:11:16;22.55;;;18.27;;
76357;SDS011;65185;21.060;105.826;2023-06-26T03:13:43;24.80;;;19.83;;
76357;SDS011;65185;21.060;105.826;2023-06-26T03:16:09;23.48;;;19.33;;
76357;SDS011;65185;21.060;105.826;2023-06-26T03:18:36;26.17;;;21.02;;
76357;SDS011;65185;21.060;105.826;2023-06-26T03:21:03;28.55;;;22.92;;
76357;SDS011;65185;21.060;105.826;2023-06-26T03:23:34;25.75;;;20.52;;
76357;SDS011;65185;21.060;105.826;2023-06-26T03:26:01;26.23;;;20.38;;
76357;SDS011;65185;21.060;105.826;2023-06-26T03:28:31;26.42;;;20.75;;
76357;SDS011;65185;21.060;105.826;2023-06-26T03:30:58;31.08;;;24.08;;
76357;SDS011;65185;21.060;105.826;2023-06-26T03:33:26;33.05;;;25.45;;
76357;SDS011;65185;21.060;105.826;2023-06-26T03:35:52;35.22;;;27.42;;
76357;SDS011;65185;21.060;105.826;2023-06-26T03:38:19;34.58;;;26.30;;
76357;SDS011;65185;21.060;105.826;2023-06-26T03:40:47;33.88;;;26.90;;
76357;SDS011;65185;21.060;105.826;2023-06-26T03:43:15;37.33;;;28.52;;
76357;SDS011;65185;21.060;105.826;2023-06-26T03:45:41;43.25;;;28.70;;
76357;SDS011;65185;21.060;105.826;2023-06-26T03:48:08;37.80;;;29.25;;
76357;SDS011;65185;21.060;105.826;2023-06-26T03:50:35;39.67;;;29.50;;
76357;SDS011;65185;21.060;105.826;2023-06-26T03:53:01;44.20;;;31.40;;
76357;SDS011;65185;21.060;105.826;2023-06-26T03:55:28;43.15;;;30.20;;
76357;SDS011;65185;21.060;105.826;2023-06-26T03:57:55;39.55;;;28.77;;
76357;SDS011;65185;21.060;105.826;2023-06-26T04:00:22;43.35;;;30.90;;
76357;SDS011;65185;21.060;105.826;2023-06-26T04:02:48;44.90;;;32.40;;
76357;SDS011;65185;21.060;105.826;2023-06-26T04:05:16;43.08;;;31.30;;
76357;SDS011;65185;21.060;105.826;2023-06-26T04:07:43;46.15;;;33.25;;
76357;SDS011;65185;21.060;105.826;2023-06-26T04:10:10;44.08;;;33.10;;
76357;SDS011;65185;21.060;105.826;2023-06-26T04:12:40;45.05;;;33.63;;
76357;SDS011;65185;21.060;105.826;2023-06-26T04:15:07;42.55;;;32.97;;
76357;SDS011;65185;21.060;105.826;2023-06-26T04:17:35;49.78;;;36.95;;
76357;SDS011;65185;21.060;105.826;2023-06-26T04:20:02;42.78;;;33.33;;
76357;SDS011;65185;21.060;105.826;2023-06-26T04:22:33;48.42;;;36.83;;
76357;SDS011;65185;21.060;105.826;2023-06-26T04:25:06;43.53;;;34.22;;
76357;SDS011;65185;21.060;105.826;2023-06-26T04:27:36;51.92;;;39.03;;
76357;SDS011;65185;21.060;105.826;2023-06-26T04:30:03;54.45;;;39.92;;
76357;SDS011;65185;21.060;105.826;2023-06-26T04:32:30;55.33;;;43.15;;
76357;SDS011;65185;21.060;105.826;2023-06-26T04:34:57;52.42;;;38.92;;
76357;SDS011;65185;21.060;105.826;2023-06-26T04:37:25;53.83;;;41.40;;
76357;SDS011;65185;21.060;105.826;2023-06-26T04:39:52;49.33;;;38.65;;
76357;SDS011;65185;21.060;105.826;2023-06-26T04:42:19;47.13;;;38.13;;
76357;SDS011;65185;21.060;105.826;2023-06-26T04:44:47;50.10;;;38.05;;
76357;SDS011;65185;21.060;105.826;2023-06-26T04:47:14;50.58;;;37.05;;
76357;SDS011;65185;21.060;105.826;2023-06-26T04:49:42;47.72;;;36.78;;
76357;SDS011;65185;21.060;105.826;2023-06-26T04:52:12;50.85;;;39.65;;
76357;SDS011;65185;21.060;105.826;2023-06-26T04:54:39;45.75;;;35.90;;
76357;SDS011;65185;21.060;105.826;2023-06-26T04:57:06;42.42;;;33.80;;
76357;SDS011;65185;21.060;105.826;2023-06-26T04:59:34;42.42;;;32.92;;
76357;SDS011;65185;21.060;105.826;2023-06-26T05:02:01;36.45;;;27.95;;
76357;SDS011;65185;21.060;105.826;2023-06-26T05:04:28;36.85;;;28.23;;
76357;SDS011;65185;21.060;105.826;2023-06-26T05:06:55;36.88;;;30.45;;
76357;SDS011;65185;21.060;105.826;2023-06-26T05:09:22;33.53;;;26.88;;
76357;SDS011;65185;21.060;105.826;2023-06-26T05:11:49;33.90;;;26.85;;
76357;SDS011;65185;21.060;105.826;2023-06-26T05:14:15;30.00;;;24.60;;
76357;SDS011;65185;21.060;105.826;2023-06-26T05:16:42;29.10;;;24.77;;
76357;SDS011;65185;21.060;105.826;2023-06-26T05:19:09;30.73;;;23.48;;
76357;SDS011;65185;21.060;105.826;2023-06-26T05:21:35;31.10;;;25.35;;
76357;SDS011;65185;21.060;105.826;2023-06-26T05:24:03;25.45;;;22.73;;
76357;SDS011;65185;21.060;105.826;2023-06-26T05:26:31;25.33;;;21.77;;
76357;SDS011;65185;21.060;105.826;2023-06-26T05:28:58;26.23;;;21.20;;
76357;SDS011;65185;21.060;105.826;2023-06-26T05:31:25;24.45;;;20.42;;
76357;SDS011;65185;21.060;105.826;2023-06-26T05:33:52;22.75;;;18.70;;
76357;SDS011;65185;21.060;105.826;2023-06-26T05:38:48;22.13;;;17.58;;
76357;SDS011;65185;21.060;105.826;2023-06-26T05:41:16;21.73;;;18.42;;
76357;SDS011;65185;21.060;105.826;2023-06-26T05:43:42;20.20;;;16.98;;
76357;SDS011;65185;21.060;105.826;2023-06-26T05:46:09;20.90;;;18.25;;
76357;SDS011;65185;21.060;105.826;2023-06-26T05:48:36;19.88;;;16.55;;
76357;SDS011;65185;21.060;105.826;2023-06-26T05:51:03;19.75;;;16.42;;
76357;SDS011;65185;21.060;105.826;2023-06-26T05:53:30;17.15;;;14.57;;
76357;SDS011;65185;21.060;105.826;2023-06-26T05:55:58;16.65;;;13.00;;
76357;SDS011;65185;21.060;105.826;2023-06-26T05:58:27;15.20;;;12.25;;
76357;SDS011;65185;21.060;105.826;2023-06-26T06:01:02;13.75;;;11.93;;
76357;SDS011;65185;21.060;105.826;2023-06-26T06:03:29;14.23;;;11.65;;
76357;SDS011;65185;21.060;105.826;2023-06-26T06:05:56;23.35;;;19.08;;
76357;SDS011;65185;21.060;105.826;2023-06-26T06:08:22;23.88;;;17.52;;
76357;SDS011;65185;21.060;105.826;2023-06-26T06:10:49;19.13;;;13.30;;
76357;SDS011;65185;21.060;105.826;2023-06-26T06:13:16;15.65;;;11.52;;
76357;SDS011;65185;21.060;105.826;2023-06-26T06:15:43;17.63;;;11.07;;
76357;SDS011;65185;21.060;105.826;2023-06-26T06:18:09;14.52;;;11.07;;
76357;SDS011;65185;21.060;105.826;2023-06-26T06:20:39;14.77;;;10.68;;
76357;SDS011;65185;21.060;105.826;2023-06-26T06:23:18;16.58;;;13.25;;
76357;SDS011;65185;21.060;105.826;2023-06-26T06:25:45;16.00;;;12.68;;
76357;SDS011;65185;21.060;105.826;2023-06-26T06:28:12;17.50;;;13.55;;
76357;SDS011;65185;21.060;105.826;2023-06-26T06:30:43;15.65;;;11.98;;
76357;SDS011;65185;21.060;105.826;2023-06-26T06:33:13;14.50;;;12.38;;
76357;SDS011;65185;21.060;105.826;2023-06-26T06:35:40;14.30;;;11.15;;
76357;SDS011;65185;21.060;105.826;2023-06-26T06:38:06;14.52;;;11.88;;
76357;SDS011;65185;21.060;105.826;2023-06-26T06:40:33;15.20;;;12.25;;
76357;SDS011;65185;21.060;105.826;2023-06-26T06:43:00;19.42;;;15.88;;
76357;SDS011;65185;21.060;105.826;2023-06-26T06:45:26;15.75;;;11.88;;
76357;SDS011;65185;21.060;105.826;2023-06-26T06:47:53;13.90;;;10.13;;
76357;SDS011;65185;21.060;105.826;2023-06-26T06:50:20;13.25;;;10.07;;
76357;SDS011;65185;21.060;105.826;2023-06-26T06:52:48;14.90;;;11.48;;
76357;SDS011;65185;21.060;105.826;2023-06-26T06:55:17;11.75;;;8.18;;
76357;SDS011;65185;21.060;105.826;2023-06-26T06:57:44;11.20;;;6.72;;
76357;SDS011;65185;21.060;105.826;2023-06-26T07:00:12;10.32;;;6.80;;
76357;SDS011;65185;21.060;105.826;2023-06-26T07:02:45;9.50;;;6.72;;
76357;SDS011;65185;21.060;105.826;2023-06-26T07:05:12;10.15;;;7.40;;
76357;SDS011;65185;21.060;105.826;2023-06-26T07:07:39;11.25;;;7.93;;
76357;SDS011;65185;21.060;105.826;2023-06-26T07:10:07;10.98;;;7.55;;
76357;SDS011;65185;21.060;105.826;2023-06-26T07:12:36;10.52;;;7.80;;
76357;SDS011;65185;21.060;105.826;2023-06-26T07:15:04;15.20;;;10.02;;
76357;SDS011;65185;21.060;105.826;2023-06-26T07:17:32;12.05;;;9.32;;
76357;SDS011;65185;21.060;105.826;2023-06-26T07:20:00;13.52;;;9.90;;
76357;SDS011;65185;21.060;105.826;2023-06-26T07:22:31;12.45;;;9.05;;
76357;SDS011;65185;21.060;105.826;2023-06-26T07:24:58;16.27;;;8.82;;
76357;SDS011;65185;21.060;105.826;2023-06-26T07:27:25;9.70;;;6.65;;
76357;SDS011;65185;21.060;105.826;2023-06-26T07:29:52;8.13;;;5.80;;
76357;SDS011;65185;21.060;105.826;2023-06-26T07:32:18;9.05;;;4.35;;
76357;SDS011;65185;21.060;105.826;2023-06-26T07:34:45;6.82;;;4.32;;
76357;SDS011;65185;21.060;105.826;2023-06-26T07:37:12;6.72;;;3.90;;
76357;SDS011;65185;21.060;105.826;2023-06-26T07:39:39;6.75;;;3.60;;
76357;SDS011;65185;21.060;105.826;2023-06-26T07:42:05;10.32;;;4.47;;
76357;SDS011;65185;21.060;105.826;2023-06-26T07:44:32;7.57;;;4.10;;
76357;SDS011;65185;21.060;105.826;2023-06-26T07:46:59;8.57;;;4.38;;
76357;SDS011;65185;21.060;105.826;2023-06-26T07:49:26;6.93;;;3.95;;
76357;SDS011;65185;21.060;105.826;2023-06-26T07:51:52;7.82;;;4.55;;
76357;SDS011;65185;21.060;105.826;2023-06-26T07:54:28;7.03;;;4.60;;
76357;SDS011;65185;21.060;105.826;2023-06-26T07:57:02;7.07;;;4.32;;
76357;SDS011;65185;21.060;105.826;2023-06-26T07:59:32;6.85;;;4.25;;
76357;SDS011;65185;21.060;105.826;2023-06-26T08:01:59;6.75;;;3.95;;
76357;SDS011;65185;21.060;105.826;2023-06-26T08:04:27;6.68;;;3.83;;
76357;SDS011;65185;21.060;105.826;2023-06-26T08:06:59;9.68;;;4.38;;
76357;SDS011;65185;21.060;105.826;2023-06-26T08:09:28;7.07;;;4.30;;
76357;SDS011;65185;21.060;105.826;2023-06-26T08:11:55;7.32;;;4.15;;
76357;SDS011;65185;21.060;105.826;2023-06-26T08:14:23;8.05;;;4.30;;
76357;SDS011;65185;21.060;105.826;2023-06-26T08:16:50;7.45;;;4.25;;
76357;SDS011;65185;21.060;105.826;2023-06-26T08:19:17;8.52;;;4.07;;
76357;SDS011;65185;21.060;105.826;2023-06-26T08:21:44;8.52;;;4.82;;
76357;SDS011;65185;21.060;105.826;2023-06-26T08:24:12;8.07;;;4.50;;
76357;SDS011;65185;21.060;105.826;2023-06-26T08:26:41;9.13;;;5.03;;
76357;SDS011;65185;21.060;105.826;2023-06-26T08:29:08;7.40;;;4.57;;
76357;SDS011;65185;21.060;105.826;2023-06-26T08:31:35;8.52;;;4.50;;
76357;SDS011;65185;21.060;105.826;2023-06-26T08:34:02;8.45;;;4.55;;
76357;SDS011;65185;21.060;105.826;2023-06-26T08:36:29;8.45;;;5.05;;
76357;SDS011;65185;21.060;105.826;2023-06-26T08:38:57;8.23;;;4.78;;
76357;SDS011;65185;21.060;105.826;2023-06-26T08:41:29;8.77;;;5.55;;
76357;SDS011;65185;21.060;105.826;2023-06-26T08:43:56;8.63;;;5.13;;
76357;SDS011;65185;21.060;105.826;2023-06-26T08:46:23;8.40;;;4.63;;
76357;SDS011;65185;21.060;105.826;2023-06-26T08:48:57;8.88;;;4.78;;
76357;SDS011;65185;21.060;105.826;2023-06-26T08:51:28;8.88;;;5.38;;
76357;SDS011;65185;21.060;105.826;2023-06-26T08:54:00;8.30;;;5.18;;
76357;SDS011;65185;21.060;105.826;2023-06-26T08:56:37;9.00;;;5.05;;
76357;SDS011;65185;21.060;105.826;2023-06-26T08:59:08;9.00;;;5.35;;
76357;SDS011;65185;21.060;105.826;2023-06-26T09:01:36;11.65;;;5.75;;
76357;SDS011;65185;21.060;105.826;2023-06-26T09:04:04;8.88;;;5.90;;
76357;SDS011;65185;21.060;105.826;2023-06-26T09:06:32;9.25;;;6.25;;
76357;SDS011;65185;21.060;105.826;2023-06-26T09:08:59;9.93;;;5.78;;
76357;SDS011;65185;21.060;105.826;2023-06-26T09:11:26;11.38;;;5.68;;
76357;SDS011;65185;21.060;105.826;2023-06-26T09:13:53;10.20;;;5.72;;
76357;SDS011;65185;21.060;105.826;2023-06-26T09:16:25;8.68;;;5.30;;
76357;SDS011;65185;21.060;105.826;2023-06-26T09:18:52;8.80;;;5.80;;
76357;SDS011;65185;21.060;105.826;2023-06-26T09:21:19;9.02;;;5.90;;
76357;SDS011;65185;21.060;105.826;2023-06-26T09:23:47;10.43;;;6.50;;
76357;SDS011;65185;21.060;105.826;2023-06-26T09:26:16;10.45;;;6.75;;
76357;SDS011;65185;21.060;105.826;2023-06-26T09:28:43;9.85;;;6.35;;
76357;SDS011;65185;21.060;105.826;2023-06-26T09:31:10;10.07;;;6.53;;
76357;SDS011;65185;21.060;105.826;2023-06-26T09:33:38;11.57;;;7.95;;
76357;SDS011;65185;21.060;105.826;2023-06-26T09:36:07;13.80;;;9.40;;
76357;SDS011;65185;21.060;105.826;2023-06-26T09:38:37;15.82;;;10.82;;
76357;SDS011;65185;21.060;105.826;2023-06-26T09:41:04;20.00;;;13.82;;
76357;SDS011;65185;21.060;105.826;2023-06-26T09:43:31;16.92;;;11.82;;
76357;SDS011;65185;21.060;105.826;2023-06-26T09:45:58;17.38;;;11.55;;
76357;SDS011;65185;21.060;105.826;2023-06-26T09:48:27;13.93;;;9.70;;
76357;SDS011;65185;21.060;105.826;2023-06-26T09:50:54;14.48;;;10.32;;
76357;SDS011;65185;21.060;105.826;2023-06-26T09:53:22;14.93;;;10.70;;
76357;SDS011;65185;21.060;105.826;2023-06-26T09:55:51;16.27;;;10.40;;
76357;SDS011;65185;21.060;105.826;2023-06-26T09:58:20;17.02;;;11.30;;
76357;SDS011;65185;21.060;105.826;2023-06-26T10:00:49;13.38;;;10.00;;
76357;SDS011;65185;21.060;105.826;2023-06-26T10:03:17;11.48;;;8.65;;
76357;SDS011;65185;21.060;105.826;2023-06-26T10:05:44;14.93;;;9.00;;
76357;SDS011;65185;21.060;105.826;2023-06-26T10:08:12;11.68;;;8.90;;
76357;SDS011;65185;21.060;105.826;2023-06-26T10:10:40;11.77;;;8.52;;
76357;SDS011;65185;21.060;105.826;2023-06-26T10:13:08;12.93;;;8.85;;
76357;SDS011;65185;21.060;105.826;2023-06-26T10:15:43;14.50;;;8.40;;
76357;SDS011;65185;21.060;105.826;2023-06-26T10:18:12;12.65;;;7.85;;
76357;SDS011;65185;21.060;105.826;2023-06-26T10:20:41;11.15;;;7.07;;
76357;SDS011;65185;21.060;105.826;2023-06-26T10:23:12;12.32;;;8.32;;
76357;SDS011;65185;21.060;105.826;2023-06-26T10:25:41;9.55;;;6.68;;
76357;SDS011;65185;21.060;105.826;2023-06-26T10:28:11;11.82;;;7.20;;
76357;SDS011;65185;21.060;105.826;2023-06-26T10:30:40;12.85;;;8.68;;
76357;SDS011;65185;21.060;105.826;2023-06-26T10:33:10;15.25;;;8.13;;
76357;SDS011;65185;21.060;105.826;2023-06-26T10:35:44;10.70;;;7.80;;
76357;SDS011;65185;21.060;105.826;2023-06-26T10:38:11;12.63;;;7.72;;
76357;SDS011;65185;21.060;105.826;2023-06-26T10:40:42;11.57;;;7.47;;
76357;SDS011;65185;21.060;105.826;2023-06-26T10:43:14;11.88;;;8.57;;
76357;SDS011;65185;21.060;105.826;2023-06-26T10:45:48;13.18;;;8.88;;
76357;SDS011;65185;21.060;105.826;2023-06-26T10:48:19;15.63;;;9.95;;
76357;SDS011;65185;21.060;105.826;2023-06-26T10:50:48;14.00;;;10.13;;
76357;SDS011;65185;21.060;105.826;2023-06-26T10:53:16;15.40;;;11.85;;
76357;SDS011;65185;21.060;105.826;2023-06-26T10:56:01;14.82;;;11.00;;
76357;SDS011;65185;21.060;105.826;2023-06-26T11:01:19;16.98;;;13.45;;
76357;SDS011;65185;21.060;105.826;2023-06-26T11:03:48;18.30;;;12.90;;
76357;SDS011;65185;21.060;105.826;2023-06-26T11:06:31;19.40;;;11.45;;
76357;SDS011;65185;21.060;105.826;2023-06-26T11:09:07;13.90;;;10.52;;
76357;SDS011;65185;21.060;105.826;2023-06-26T11:14:25;15.52;;;10.43;;
76357;SDS011;65185;21.060;105.826;2023-06-26T11:16:56;13.50;;;9.82;;
76357;SDS011;65185;21.060;105.826;2023-06-26T11:19:26;13.98;;;9.52;;
76357;SDS011;65185;21.060;105.826;2023-06-26T11:21:57;12.38;;;8.40;;
76357;SDS011;65185;21.060;105.826;2023-06-26T11:24:25;14.35;;;8.23;;
76357;SDS011;65185;21.060;105.826;2023-06-26T11:26:53;14.43;;;7.72;;
76357;SDS011;65185;21.060;105.826;2023-06-26T11:29:20;11.88;;;7.22;;
76357;SDS011;65185;21.060;105.826;2023-06-26T11:31:48;10.63;;;6.47;;
76357;SDS011;65185;21.060;105.826;2023-06-26T11:34:28;13.55;;;8.07;;
76357;SDS011;65185;21.060;105.826;2023-06-26T11:36:57;12.93;;;8.02;;
76357;SDS011;65185;21.060;105.826;2023-06-26T11:39:26;11.38;;;8.02;;
76357;SDS011;65185;21.060;105.826;2023-06-26T11:41:56;12.00;;;8.32;;
76357;SDS011;65185;21.060;105.826;2023-06-26T11:44:25;11.55;;;8.02;;
76357;SDS011;65185;21.060;105.826;2023-06-26T11:46:56;14.48;;;8.90;;
76357;SDS011;65185;21.060;105.826;2023-06-26T11:49:23;12.65;;;8.25;;
76357;SDS011;65185;21.060;105.826;2023-06-26T11:51:52;13.20;;;8.20;;
76357;SDS011;65185;21.060;105.826;2023-06-26T11:54:26;12.80;;;9.15;;
76357;SDS011;65185;21.060;105.826;2023-06-26T11:56:57;14.90;;;9.25;;
76357;SDS011;65185;21.060;105.826;2023-06-26T11:59:32;14.18;;;9.43;;
76357;SDS011;65185;21.060;105.826;2023-06-26T12:02:12;11.70;;;8.57;;
76357;SDS011;65185;21.060;105.826;2023-06-26T12:04:41;15.60;;;9.40;;
76357;SDS011;65185;21.060;105.826;2023-06-26T12:07:09;15.68;;;10.82;;
76357;SDS011;65185;21.060;105.826;2023-06-26T12:09:39;14.65;;;11.65;;
76357;SDS011;65185;21.060;105.826;2023-06-26T12:12:12;14.68;;;11.05;;
76357;SDS011;65185;21.060;105.826;2023-06-26T12:14:40;19.13;;;12.63;;
76357;SDS011;65185;21.060;105.826;2023-06-26T12:17:08;19.38;;;12.40;;
76357;SDS011;65185;21.060;105.826;2023-06-26T12:19:37;18.17;;;11.95;;
76357;SDS011;65185;21.060;105.826;2023-06-26T12:22:07;17.15;;;12.27;;
76357;SDS011;65185;21.060;105.826;2023-06-26T12:24:38;23.17;;;13.57;;
76357;SDS011;65185;21.060;105.826;2023-06-26T12:27:08;17.40;;;12.88;;
76357;SDS011;65185;21.060;105.826;2023-06-26T12:29:40;18.23;;;13.43;;
76357;SDS011;65185;21.060;105.826;2023-06-26T12:32:12;17.45;;;12.73;;
76357;SDS011;65185;21.060;105.826;2023-06-26T12:34:39;19.90;;;13.45;;
76357;SDS011;65185;21.060;105.826;2023-06-26T12:37:10;19.35;;;13.45;;
76357;SDS011;65185;21.060;105.826;2023-06-26T12:40:15;17.20;;;13.27;;
76357;SDS011;65185;21.060;105.826;2023-06-26T12:42:43;18.80;;;14.50;;
76357;SDS011;65185;21.060;105.826;2023-06-26T12:45:10;17.40;;;13.57;;
76357;SDS011;65185;21.060;105.826;2023-06-26T12:47:38;21.33;;;14.52;;
76357;SDS011;65185;21.060;105.826;2023-06-26T12:50:06;17.10;;;13.25;;
76357;SDS011;65185;21.060;105.826;2023-06-26T12:52:34;16.58;;;12.25;;
76357;SDS011;65185;21.060;105.826;2023-06-26T12:55:00;16.63;;;13.10;;
76357;SDS011;65185;21.060;105.826;2023-06-26T12:57:27;18.73;;;13.60;;
76357;SDS011;65185;21.060;105.826;2023-06-26T12:59:54;22.35;;;15.07;;
76357;SDS011;65185;21.060;105.826;2023-06-26T13:02:21;20.38;;;13.75;;
76357;SDS011;65185;21.060;105.826;2023-06-26T13:04:47;21.13;;;13.48;;
76357;SDS011;65185;21.060;105.826;2023-06-26T13:07:14;19.08;;;13.32;;
76357;SDS011;65185;21.060;105.826;2023-06-26T13:09:41;20.15;;;13.27;;
76357;SDS011;65185;21.060;105.826;2023-06-26T13:12:09;20.83;;;13.48;;
76357;SDS011;65185;21.060;105.826;2023-06-26T13:14:36;21.67;;;13.32;;
76357;SDS011;65185;21.060;105.826;2023-06-26T13:17:03;18.25;;;14.45;;
76357;SDS011;65185;21.060;105.826;2023-06-26T13:19:30;19.67;;;13.80;;
76357;SDS011;65185;21.060;105.826;2023-06-26T13:21:57;22.73;;;14.88;;
76357;SDS011;65185;21.060;105.826;2023-06-26T13:24:25;19.00;;;13.30;;
76357;SDS011;65185;21.060;105.826;2023-06-26T13:26:52;16.42;;;12.77;;
76357;SDS011;65185;21.060;105.826;2023-06-26T13:29:23;20.17;;;12.38;;
76357;SDS011;65185;21.060;105.826;2023-06-26T13:31:50;18.27;;;12.13;;
76357;SDS011;65185;21.060;105.826;2023-06-26T13:34:35;17.27;;;12.23;;
76357;SDS011;65185;21.060;105.826;2023-06-26T13:37:02;16.95;;;11.60;;
76357;SDS011;65185;21.060;105.826;2023-06-26T13:39:29;15.77;;;9.65;;
76357;SDS011;65185;21.060;105.826;2023-06-26T13:41:56;15.50;;;9.18;;
76357;SDS011;65185;21.060;105.826;2023-06-26T13:44:29;13.02;;;8.85;;
76357;SDS011;65185;21.060;105.826;2023-06-26T13:46:55;14.60;;;9.70;;
76357;SDS011;65185;21.060;105.826;2023-06-26T13:49:22;17.42;;;9.55;;
76357;SDS011;65185;21.060;105.826;2023-06-26T13:51:49;21.13;;;9.55;;
76357;SDS011;65185;21.060;105.826;2023-06-26T13:54:16;14.85;;;8.57;;
76357;SDS011;65185;21.060;105.826;2023-06-26T13:56:43;17.75;;;9.40;;
76357;SDS011;65185;21.060;105.826;2023-06-26T13:59:10;13.85;;;7.40;;
76357;SDS011;65185;21.060;105.826;2023-06-26T14:01:37;14.45;;;7.53;;
76357;SDS011;65185;21.060;105.826;2023-06-26T14:04:05;14.95;;;7.53;;
76357;SDS011;65185;21.060;105.826;2023-06-26T14:06:32;17.35;;;8.52;;
76357;SDS011;65185;21.060;105.826;2023-06-26T14:09:00;17.85;;;7.35;;
76357;SDS011;65185;21.060;105.826;2023-06-26T14:11:27;11.98;;;7.63;;
76357;SDS011;65185;21.060;105.826;2023-06-26T14:13:54;12.38;;;7.07;;
76357;SDS011;65185;21.060;105.826;2023-06-26T14:16:21;14.48;;;7.13;;
76357;SDS011;65185;21.060;105.826;2023-06-26T14:18:48;12.70;;;7.30;;
76357;SDS011;65185;21.060;105.826;2023-06-26T14:21:15;13.88;;;7.57;;
76357;SDS011;65185;21.060;105.826;2023-06-26T14:23:42;13.55;;;7.28;;
76357;SDS011;65185;21.060;105.826;2023-06-26T14:26:09;13.30;;;7.05;;